Time;durP1;ratioP1;P1;durP2;ratioP2;P2;SDS_P1;SDS_P2;PMS_P1;PMS_P2;Temp;Humidity;BMP_temperature;BMP_pressure;BME280_temperature;BME280_humidity;BME280_pressure;Samples;Min_cycle;Max_cycle;Signal;HPM_P1;HPM_P2
2022/06/23 00:00:31;;;;;;;4.53;2.10;;;;;;;13.83;100.00;98716.97;1705562;83;21216;-56
2022/06/23 00:02:59;;;;;;;4.37;2.10;;;;;;;13.73;100.00;98718.92;1710327;83;21818;-58
2022/06/23 00:05:27;;;;;;;5.00;2.30;;;;;;;13.68;100.00;98722.78;1699982;83;21881;-59
2022/06/23 00:07:57;;;;;;;4.23;2.43;;;;;;;13.61;100.00;98722.16;1675039;84;22864;-57
2022/06/23 00:10:33;;;;;;;5.63;2.00;;;;;;;13.56;100.00;98723.38;1643652;86;22064;-56
2022/06/23 00:13:03;;;;;;;6.47;2.00;;;;;;;13.49;100.00;98720.16;1644601;86;21711;-58
2022/06/23 00:15:38;;;;;;;4.60;2.67;;;;;;;13.43;100.00;98719.79;1644349;86;21829;-57
2022/06/23 00:18:24;;;;;;;3.77;1.80;;;;;;;13.37;100.00;98715.80;1673843;84;21808;-56
2022/06/23 00:21:11;;;;;;;6.33;2.40;;;;;;;13.37;100.00;98718.41;1672163;84;21804;-58
2022/06/23 00:23:42;;;;;;;5.23;2.77;;;;;;;13.29;100.00;98721.41;1667598;84;22222;-57
2022/06/23 00:26:15;;;;;;;5.03;2.45;;;;;;;13.29;100.00;98721.41;1671348;84;21695;-57
2022/06/23 00:29:03;;;;;;;4.60;2.27;;;;;;;13.29;100.00;98731.88;1667702;84;21094;-57
2022/06/23 00:31:34;;;;;;;4.27;2.07;;;;;;;13.31;100.00;98727.20;1657045;85;22615;-56
2022/06/23 00:34:05;;;;;;;5.87;2.80;;;;;;;13.36;100.00;98725.17;1670262;84;21715;-58
2022/06/23 00:36:40;;;;;;;6.33;2.40;;;;;;;13.41;100.00;98726.58;1672849;84;21554;-56
2022/06/23 00:39:44;;;;;;;2.97;1.60;;;;;;;13.43;100.00;98725.02;1669093;84;22108;-57
2022/06/23 00:42:26;;;;;;;5.10;1.40;;;;;;;13.46;100.00;98723.24;1673647;84;21813;-61
2022/06/23 00:45:19;;;;;;;3.43;1.73;;;;;;;13.54;100.00;98726.24;1672877;84;21776;-57
2022/06/23 00:48:23;;;;;;;5.53;1.70;;;;;;;13.52;100.00;98731.43;1669106;84;21784;-58
2022/06/23 00:51:07;;;;;;;3.73;2.13;;;;;;;13.56;100.00;98729.92;1670010;85;22054;-57
2022/06/23 00:53:46;;;;;;;5.13;2.40;;;;;;;13.52;100.00;98740.59;1658874;84;21851;-57
2022/06/23 00:56:38;;;;;;;4.87;2.27;;;;;;;13.56;100.00;98736.47;1708914;83;22255;-57
2022/06/23 00:59:13;;;;;;;4.13;1.60;;;;;;;13.62;100.00;98736.83;1702402;83;21751;-58
2022/06/23 01:01:59;;;;;;;3.37;1.90;;;;;;;13.67;100.00;98738.20;1710261;83;21653;-57
2022/06/23 01:04:53;;;;;;;4.00;2.20;;;;;;;13.72;100.00;98739.60;1694238;83;21758;-57
2022/06/23 01:08:05;;;;;;;4.73;2.10;;;;;;;13.74;100.00;98741.97;1704165;83;22233;-56
2022/06/23 01:11:02;;;;;;;3.53;1.80;;;;;;;13.77;100.00;98740.97;1696230;83;20991;-55
2022/06/23 01:13:49;;;;;;;4.73;2.37;;;;;;;13.81;100.00;98744.69;1669273;83;21799;-61
2022/06/23 01:16:27;;;;;;;3.77;2.10;;;;;;;13.83;100.00;98747.09;1695570;83;23119;-56
2022/06/23 01:19:38;;;;;;;3.47;1.97;;;;;;;13.86;100.00;98755.75;1702383;83;21597;-55
2022/06/23 01:22:10;;;;;;;4.83;2.20;;;;;;;13.83;100.00;98754.42;1691421;83;21668;-56
2022/06/23 01:25:04;;;;;;;3.63;1.50;;;;;;;13.83;100.00;98756.25;1696220;83;22277;-56
2022/06/23 01:28:01;;;;;;;3.50;1.90;;;;;;;13.81;100.00;98764.34;1695897;83;21753;-59
2022/06/23 01:30:39;;;;;;;2.70;1.50;;;;;;;13.81;100.00;98763.55;1692112;83;21450;-57
2022/06/23 01:33:28;;;;;;;5.20;1.90;;;;;;;13.78;100.00;98767.42;1697167;83;21509;-57
2022/06/23 01:36:34;;;;;;;2.87;1.80;;;;;;;13.77;100.00;98762.44;1702788;83;21025;-55
2022/06/23 01:39:25;;;;;;;3.03;1.80;;;;;;;13.67;100.00;98767.00;1704458;83;21640;-57
2022/06/23 01:42:01;;;;;;;3.25;1.70;;;;;;;13.58;100.00;98761.38;1699962;83;21984;-57
2022/06/23 01:44:55;;;;;;;3.80;2.07;;;;;;;13.49;100.00;98783.77;1696242;83;21274;-63
2022/06/23 01:47:50;;;;;;;5.17;1.90;;;;;;;13.43;100.00;98773.45;1680128;83;21076;-64
2022/06/23 01:50:42;;;;;;;2.37;1.30;;;;;;;13.30;100.00;98779.27;1693843;83;22631;-56
2022/06/23 01:53:21;;;;;;;4.10;1.83;;;;;;;13.24;100.00;98778.90;1701104;83;21743;-57
2022/06/23 01:56:24;;;;;;;3.53;2.00;;;;;;;13.19;100.00;98777.48;1705688;83;22207;-56
2022/06/23 01:59:30;;;;;;;3.03;1.83;;;;;;;13.16;100.00;98774.03;1693813;83;22461;-58
2022/06/23 02:02:14;;;;;;;4.60;2.40;;;;;;;13.08;100.00;98778.34;1698713;83;21636;-56
2022/06/23 02:05:05;;;;;;;3.07;1.93;;;;;;;13.08;100.00;98778.34;1698734;83;21756;-55
2022/06/23 02:07:41;;;;;;;4.53;2.02;;;;;;;13.11;100.00;98788.34;1662547;83;21773;-58
2022/06/23 02:10:29;;;;;;;3.27;1.77;;;;;;;13.11;100.00;98788.34;1703982;83;21915;-57
2022/06/23 02:13:14;;;;;;;4.03;1.80;;;;;;;13.16;100.00;98783.19;1699495;83;21821;-57
2022/06/23 02:16:05;;;;;;;3.73;1.70;;;;;;;13.24;100.00;98787.27;1702831;83;22510;-55
2022/06/23 02:19:10;;;;;;;5.60;2.43;;;;;;;13.31;100.00;98790.53;1689338;83;21758;-55
2022/06/23 02:22:01;;;;;;;9.13;6.83;;;;;;;13.42;100.00;98792.29;1684649;83;21753;-63
2022/06/23 02:24:36;;;;;;;12.70;11.43;;;;;;;13.58;100.00;98782.84;1687241;83;22211;-55
2022/06/23 02:27:35;;;;;;;20.67;17.27;;;;;;;13.90;100.00;98789.59;1665185;84;21725;-58
2022/06/23 02:30:07;;;;;;;12.43;8.60;;;;;;;14.29;100.00;98782.54;1661909;85;21085;-57
2022/06/23 02:33:05;;;;;;;6.30;4.50;;;;;;;14.96;100.00;98781.47;1667654;85;22281;-58
2022/06/23 02:35:37;;;;;;;5.53;3.23;;;;;;;15.64;100.00;98781.78;1638002;86;21154;-57
2022/06/23 02:38:14;;;;;;;6.30;3.93;;;;;;;16.05;100.00;98772.35;1661538;84;21058;-57
2022/06/23 02:40:45;;;;;;;3.97;2.73;;;;;;;16.07;100.00;98772.64;1663231;84;22347;-57
2022/06/23 02:43:25;;;;;;;4.00;2.60;;;;;;;16.01;100.00;98775.75;1664887;84;21375;-56
2022/06/23 02:46:09;;;;;;;4.43;2.43;;;;;;;15.91;100.00;98778.31;1665376;84;21173;-57
2022/06/23 02:49:18;;;;;;;5.23;2.50;;;;;;;15.87;100.00;98783.28;1660921;84;21089;-61
2022/06/23 02:51:54;;;;;;;4.37;2.10;;;;;;;15.80;100.00;98780.89;1663130;84;21101;-64
2022/06/23 02:54:52;;;;;;;5.80;2.33;;;;;;;15.77;100.00;98780.08;1597155;85;21437;-55
2022/06/23 02:57:52;;;;;;;4.10;2.20;;;;;;;15.69;100.00;98785.81;1662241;84;21533;-58
2022/06/23 03:00:42;;;;;;;4.93;2.47;;;;;;;15.59;100.00;98787.02;1643543;84;21097;-64
2022/06/23 03:03:39;;;;;;;4.17;2.60;;;;;;;15.44;100.00;98790.83;1667302;84;21016;-57
2022/06/23 03:06:18;;;;;;;5.83;2.53;;;;;;;15.36;100.00;98788.67;1624796;86;21144;-60
2022/06/23 03:08:59;;;;;;;5.27;2.77;;;;;;;15.38;100.00;98794.45;1632064;86;21789;-58
2022/06/23 03:11:52;;;;;;;5.28;3.17;;;;;;;15.52;100.00;98794.30;1648165;84;21096;-60
2022/06/23 03:15:01;;;;;;;11.20;2.90;;;;;;;15.78;100.00;98792.16;1630164;85;21022;-60
2022/06/23 03:17:45;;;;;;;6.77;3.50;;;;;;;16.57;100.00;98793.11;1654787;84;22089;-57
2022/06/23 03:20:38;;;;;;;4.93;3.27;;;;;;;17.50;100.00;98794.36;1655408;84;21003;-58
2022/06/23 03:23:31;;;;;;;6.10;3.77;;;;;;;18.10;100.00;98795.08;1653059;84;21289;-58
2022/06/23 03:26:46;;;;;;;5.03;3.00;;;;;;;18.59;100.00;98797.80;1657375;84;21180;-65
2022/06/23 03:29:38;;;;;;;4.83;3.07;;;;;;;19.51;100.00;98788.02;1656447;84;21086;-66
2022/06/23 03:32:31;;;;;;;5.13;2.83;;;;;;;20.96;100.00;98792.80;1655004;86;21630;-59
2022/06/23 03:35:18;;;;;;;5.10;2.27;;;;;;;22.50;100.00;98785.92;1656112;84;21031;-58
2022/06/23 03:38:14;;;;;;;4.23;2.40;;;;;;;23.98;100.00;98789.64;1655004;84;21309;-66
2022/06/23 03:43:54;;;;;;;2.75;1.87;;;;;;;26.73;68.41;98793.42;1655524;84;21483;-63
2022/06/23 03:46:29;;;;;;;3.27;1.82;;;;;;;27.78;57.15;98785.27;1654784;84;21077;-57
2022/06/23 03:49:16;;;;;;;2.72;1.67;;;;;;;28.71;51.48;98788.13;1664953;84;21015;-58
2022/06/23 03:51:58;;;;;;;3.37;1.95;;;;;;;29.50;46.57;98796.44;1657161;84;21665;-57
2022/06/23 03:54:32;;;;;;;2.65;1.65;;;;;;;30.04;42.65;98805.27;1655028;85;21089;-57
2022/06/23 03:57:07;;;;;;;2.42;1.45;;;;;;;30.45;40.91;98809.88;1659428;84;21056;-64
2022/06/23 04:00:22;;;;;;;2.17;1.40;;;;;;;30.78;39.81;98815.62;1655568;84;21095;-56
2022/06/23 04:03:03;;;;;;;4.55;1.50;;;;;;;31.22;38.29;98814.58;1651170;86;21033;-56
2022/06/23 04:05:57;;;;;;;2.98;1.60;;;;;;;31.83;37.17;98808.38;1680201;83;21415;-63
2022/06/23 04:08:29;;;;;;;2.17;1.27;;;;;;;32.17;36.10;98805.84;1695809;83;21076;-58
2022/06/23 04:11:42;;;;;;;5.83;1.82;;;;;;;32.43;35.31;98803.17;1708725;83;21021;-57
2022/06/23 04:13:31;;;;;;;3.80;1.40;;;;;;;32.99;34.27;98802.14;1668222;85;21134;-57
2022/06/23 04:16:08;;;;;;;3.25;1.98;;;;;;;33.47;33.55;98803.65;1667468;84;21141;-56
2022/06/23 04:18:39;;;;;;;3.10;1.80;;;;;;;33.90;32.63;98803.43;1658909;85;21203;-57
2022/06/23 04:21:16;;;;;;;3.12;1.70;;;;;;;34.37;31.89;98805.91;1668462;85;21511;-58
2022/06/23 04:23:49;;;;;;;3.27;1.98;;;;;;;34.52;30.67;98810.28;1667416;84;21479;-56
2022/06/23 04:26:23;;;;;;;3.67;1.85;;;;;;;34.58;30.33;98818.22;1706467;83;21063;-56
2022/06/23 04:28:57;;;;;;;3.60;1.87;;;;;;;34.90;30.30;98813.54;1702718;83;20898;-65
2022/06/23 04:31:34;;;;;;;3.27;2.37;;;;;;;35.40;29.07;98817.76;1690422;83;21171;-57
2022/06/23 04:34:01;;;;;;;4.65;2.70;;;;;;;35.56;28.44;98823.61;1712737;83;21028;-56
2022/06/23 04:36:31;;;;;;;4.00;2.00;;;;;;;35.73;28.48;98829.45;1709147;83;21448;-63
2022/06/23 04:39:21;;;;;;;3.33;2.33;;;;;;;36.02;28.12;98824.22;1713189;83;22379;-56
2022/06/23 04:42:11;;;;;;;2.47;1.95;;;;;;;36.38;27.04;98822.83;1704946;83;21009;-56
2022/06/23 04:44:45;;;;;;;3.62;2.33;;;;;;;36.53;26.74;98818.94;1705715;83;21215;-57
2022/06/23 04:47:26;;;;;;;4.85;2.60;;;;;;;36.37;26.75;98822.64;1706522;83;20975;-56
2022/06/23 04:49:56;;;;;;;2.55;1.90;;;;;;;35.87;26.76;98833.50;1700746;83;21635;-57
2022/06/23 04:52:37;;;;;;;3.17;2.25;;;;;;;34.86;27.54;98841.18;1698951;83;21127;-56
2022/06/23 04:55:19;;;;;;;2.72;1.70;;;;;;;33.84;28.52;98844.91;1701537;83;21041;-62
2022/06/23 04:57:57;;;;;;;2.95;1.72;;;;;;;32.94;29.69;98845.09;1712854;83;21217;-56
2022/06/23 05:00:27;;;;;;;3.47;1.85;;;;;;;32.48;30.58;98849.85;1712159;83;21079;-57
2022/06/23 05:03:00;;;;;;;2.77;1.65;;;;;;;32.48;31.19;98853.89;1709020;83;21049;-58
2022/06/23 05:05:35;;;;;;;2.98;1.75;;;;;;;32.30;30.99;98849.55;1695896;83;21069;-57
2022/06/23 05:08:16;;;;;;;2.98;1.98;;;;;;;31.90;31.26;98853.56;1701170;83;21530;-56
2022/06/23 05:10:47;;;;;;;4.42;1.75;;;;;;;31.37;31.67;98854.12;1693403;83;22056;-63
2022/06/23 05:13:18;;;;;;;3.30;1.98;;;;;;;30.77;32.68;98857.69;1704157;83;21427;-56
2022/06/23 05:15:56;;;;;;;5.00;2.08;;;;;;;30.19;33.54;98856.14;1696742;83;21021;-56
2022/06/23 05:18:32;;;;;;;3.25;2.35;;;;;;;29.68;34.76;98859.47;1699355;83;21052;-66
2022/06/23 05:21:07;;;;;;;3.33;2.10;;;;;;;29.37;35.48;98855.35;1696698;83;21451;-58
2022/06/23 05:23:44;;;;;;;5.28;2.77;;;;;;;29.36;36.23;98856.45;1697450;83;21762;-57
2022/06/23 05:26:19;;;;;;;7.85;2.80;;;;;;;29.04;36.66;98855.78;1699055;83;21619;-65
2022/06/23 05:28:48;;;;;;;4.45;2.02;;;;;;;28.57;37.37;98859.55;1706978;83;21562;-55
2022/06/23 05:31:20;;;;;;;2.90;2.30;;;;;;;28.31;38.03;98858.52;1655487;83;21528;-57
2022/06/23 05:33:51;;;;;;;5.92;2.40;;;;;;;27.89;39.29;98855.46;1698656;83;21067;-55
2022/06/23 05:36:25;;;;;;;3.67;2.40;;;;;;;27.31;39.84;98855.91;1702517;83;21471;-58
2022/06/23 05:39:07;;;;;;;6.12;2.67;;;;;;;26.68;40.35;98859.11;1706893;83;21888;-56
2022/06/23 05:41:44;;;;;;;6.37;2.87;;;;;;;26.28;41.93;98866.11;1699979;83;21571;-59
2022/06/23 05:44:18;;;;;;;4.62;2.65;;;;;;;26.00;43.09;98860.97;1699817;83;21068;-55
2022/06/23 05:46:45;;;;;;;4.67;2.52;;;;;;;25.76;43.65;98860.11;1699101;83;21564;-56
2022/06/23 05:49:23;;;;;;;3.83;2.20;;;;;;;25.46;44.83;98858.14;1694901;83;21142;-55
2022/06/23 05:52:00;;;;;;;4.25;2.75;;;;;;;25.26;45.87;98853.42;1698488;83;21061;-58
2022/06/23 05:55:02;;;;;;;3.30;2.35;;;;;;;24.98;46.93;98851.59;1680823;83;21072;-56
2022/06/23 05:58:12;;;;;;;6.53;3.35;;;;;;;24.60;48.13;98852.16;1686588;83;22252;-59
2022/06/23 06:00:50;;;;;;;4.33;2.23;;;;;;;24.32;51.55;98860.91;1701940;83;22392;-57
2022/06/23 06:03:41;;;;;;;5.30;2.27;;;;;;;24.08;52.74;98861.80;1704133;83;21205;-61
2022/06/23 06:06:08;;;;;;;3.95;2.00;;;;;;;23.90;54.38;98873.68;1706587;83;21082;-58
2022/06/23 06:11:29;;;;;;;5.47;2.03;;;;;;;23.30;57.01;98866.84;1575868;89;21046;-59
2022/06/23 06:13:56;;;;;;;3.80;2.60;;;;;;;23.20;59.83;98872.94;1576703;89;21685;-59
2022/06/23 06:16:24;;;;;;;4.47;2.53;;;;;;;23.16;61.64;98881.27;1618479;83;21236;-60
2022/06/23 06:18:51;;;;;;;4.43;2.50;;;;;;;23.06;62.13;98886.25;1712246;83;20989;-57
2022/06/23 06:21:19;;;;;;;3.53;2.33;;;;;;;22.81;64.06;98893.66;1706823;83;20989;-66
2022/06/23 06:24:08;;;;;;;4.20;2.47;;;;;;;22.63;65.97;98896.42;1700968;83;21005;-56
2022/06/23 06:26:39;;;;;;;6.17;3.03;;;;;;;22.54;69.62;98898.44;1691559;83;21045;-58
2022/06/23 06:29:26;;;;;;;3.60;2.60;;;;;;;22.55;70.61;98902.66;1711779;83;21218;-59
2022/06/23 06:32:13;;;;;;;5.23;2.50;;;;;;;22.36;71.11;98903.83;1707307;83;21577;-57
2022/06/23 06:34:51;;;;;;;4.13;2.70;;;;;;;22.18;74.29;98912.11;1689199;83;21112;-66
2022/06/23 06:37:18;;;;;;;5.40;2.87;;;;;;;22.03;76.25;98915.23;1708633;83;21352;-57
2022/06/23 06:39:51;;;;;;;4.47;2.43;;;;;;;21.87;78.49;98913.91;1699992;83;21121;-56
2022/06/23 06:42:25;;;;;;;4.90;2.67;;;;;;;21.70;82.08;98909.13;1709216;83;21242;-65
2022/06/23 06:44:54;;;;;;;7.23;2.17;;;;;;;21.60;87.31;98911.95;1702849;83;21123;-58
2022/06/23 06:47:30;;;;;;;6.07;2.60;;;;;;;21.57;89.88;98913.30;1705276;83;20941;-57
2022/06/23 06:50:02;;;;;;;4.30;3.00;;;;;;;21.66;92.54;98911.32;1665739;83;21214;-58
2022/06/23 06:52:29;;;;;;;6.20;2.70;;;;;;;21.73;93.53;98911.20;1711958;83;20969;-58
2022/06/23 06:55:07;;;;;;;4.50;2.97;;;;;;;21.84;91.81;98913.95;1699722;83;21153;-58
2022/06/23 06:57:46;;;;;;;7.60;2.97;;;;;;;21.99;89.74;98918.22;1712258;83;20941;-66
2022/06/23 07:00:24;;;;;;;4.90;2.87;;;;;;;22.18;86.92;98923.50;1712229;83;21302;-57
2022/06/23 07:03:00;;;;;;;5.23;2.03;;;;;;;22.44;84.05;98922.52;1708446;83;21070;-56
2022/06/23 07:05:53;;;;;;;3.57;2.53;;;;;;;22.74;76.49;98921.70;1700271;83;21078;-57
2022/06/23 07:08:37;;;;;;;5.00;2.50;;;;;;;23.04;76.33;98925.09;1702785;83;21196;-56
2022/06/23 07:11:20;;;;;;;3.63;2.00;;;;;;;23.53;73.58;98922.72;1695276;83;21609;-63
2022/06/23 07:13:55;;;;;;;3.20;2.37;;;;;;;23.94;64.07;98925.23;1701172;83;21073;-56
2022/06/23 07:20:02;;;;;;;2.80;1.90;;;;;;;25.08;61.25;98927.28;1691841;83;21480;-57
2022/06/23 07:22:33;;;;;;;3.95;1.90;;;;;;;26.37;57.56;98923.53;1698078;83;22092;-57
2022/06/23 07:25:17;;;;;;;2.87;2.05;;;;;;;27.44;48.54;98926.89;1702393;83;20919;-56
2022/06/23 07:27:59;;;;;;;2.80;1.70;;;;;;;27.78;44.19;98925.28;1694117;83;21842;-62
2022/06/23 07:30:33;;;;;;;3.12;1.60;;;;;;;27.72;42.81;98940.50;1699848;83;21022;-58
2022/06/23 07:33:15;;;;;;;1.87;1.27;;;;;;;27.60;42.53;98949.27;1694801;83;20964;-63
2022/06/23 07:35:55;;;;;;;2.40;1.47;;;;;;;27.85;41.92;98948.30;1698224;83;21679;-57
2022/06/23 07:38:47;;;;;;;2.25;1.50;;;;;;;28.20;40.45;98947.94;1683288;83;20943;-59
2022/06/23 07:41:19;;;;;;;2.15;1.55;;;;;;;28.41;40.42;98949.21;1707292;83;21126;-56
2022/06/23 07:44:06;;;;;;;3.33;1.65;;;;;;;28.47;39.79;98955.93;1698120;83;21113;-62
2022/06/23 07:46:36;;;;;;;5.45;2.12;;;;;;;28.46;40.09;98954.94;1701830;83;20993;-61
2022/06/23 07:49:04;;;;;;;2.50;1.60;;;;;;;28.06;38.08;98950.91;1707461;83;21166;-56
2022/06/23 07:51:32;;;;;;;3.72;1.87;;;;;;;27.59;39.08;98957.08;1698817;83;21073;-58
2022/06/23 07:53:59;;;;;;;4.95;1.65;;;;;;;27.40;40.27;98958.88;1694302;83;20973;-58
2022/06/23 07:56:32;;;;;;;5.83;1.98;;;;;;;27.50;41.12;98964.37;1700085;83;21117;-58
2022/06/23 07:59:06;;;;;;;3.40;2.00;;;;;;;27.67;41.72;98957.55;1695841;83;21083;-57
2022/06/23 08:01:53;;;;;;;4.75;1.55;;;;;;;27.83;41.40;98957.76;1699866;83;21227;-56
2022/06/23 08:04:34;;;;;;;3.08;1.70;;;;;;;28.26;41.29;98956.00;1696020;83;20939;-65
2022/06/23 08:07:04;;;;;;;2.92;1.70;;;;;;;28.97;38.90;98958.05;1695813;83;22200;-58
2022/06/23 08:09:39;;;;;;;3.80;1.92;;;;;;;29.53;38.40;98959.53;1707788;83;21018;-56
2022/06/23 08:18:01;;;;;;;3.95;1.82;;;;;;;29.26;38.04;98964.53;1698877;83;22365;-58
2022/06/23 08:20:29;;;;;;;5.75;2.20;;;;;;;29.12;37.90;98966.78;1702136;83;21652;-61
2022/06/23 08:22:56;;;;;;;6.80;1.80;;;;;;;29.28;37.85;98964.98;1704699;83;20993;-57
2022/06/23 08:25:24;;;;;;;2.65;1.85;;;;;;;29.72;38.36;98962.97;1639922;85;21099;-57
2022/06/23 08:27:52;;;;;;;4.08;1.60;;;;;;;30.12;37.07;98961.55;1704689;83;22250;-56
2022/06/23 08:30:19;;;;;;;5.20;2.15;;;;;;;30.38;36.79;98963.75;1706294;83;21569;-55
2022/06/23 08:32:50;;;;;;;5.03;1.90;;;;;;;30.30;36.09;98970.08;1702009;83;21536;-57
2022/06/23 08:35:30;;;;;;;2.05;1.40;;;;;;;30.02;35.98;98970.88;1707738;83;21522;-61
2022/06/23 08:38:08;;;;;;;3.20;2.27;;;;;;;29.62;36.24;98976.88;1702460;83;21202;-57
2022/06/23 08:40:58;;;;;;;3.45;1.90;;;;;;;29.04;37.42;98977.09;1697763;83;21294;-56
2022/06/23 08:43:45;;;;;;;2.33;1.50;;;;;;;28.73;37.82;98978.97;1708075;83;21720;-57
2022/06/23 08:46:45;;;;;;;2.40;1.75;;;;;;;28.40;38.23;98987.08;1703706;83;21063;-55
2022/06/23 08:49:26;;;;;;;2.80;1.83;;;;;;;28.06;38.53;98998.34;1644842;83;20967;-57
2022/06/23 08:52:18;;;;;;;3.90;1.80;;;;;;;27.59;39.79;98995.89;1676814;83;21064;-65
2022/06/23 08:54:56;;;;;;;3.27;1.77;;;;;;;27.25;40.86;99007.06;1699915;83;21242;-58
2022/06/23 08:57:31;;;;;;;3.75;1.25;;;;;;;27.02;41.78;99008.42;1684288;83;21521;-64
2022/06/23 09:00:10;;;;;;;3.47;1.60;;;;;;;26.90;41.27;99015.23;1708047;83;21074;-59
2022/06/23 09:02:58;;;;;;;2.83;1.17;;;;;;;26.72;40.67;99019.08;1707868;83;21095;-56
2022/06/23 09:06:07;;;;;;;3.00;1.77;;;;;;;26.43;41.01;99011.19;1676658;83;20997;-56
2022/06/23 09:09:05;;;;;;;3.25;1.55;;;;;;;26.10;42.54;99011.48;1702491;83;21224;-62
2022/06/23 09:11:44;;;;;;;3.25;1.52;;;;;;;25.95;43.11;99010.89;1685676;83;21306;-58
2022/06/23 09:14:22;;;;;;;2.60;1.50;;;;;;;25.83;43.90;99024.06;1700915;83;21016;-61
2022/06/23 09:17:22;;;;;;;4.53;1.50;;;;;;;25.73;44.17;99025.14;1700217;83;21331;-57
2022/06/23 09:19:57;;;;;;;3.00;1.97;;;;;;;25.63;44.04;99017.98;1698240;83;20969;-56
2022/06/23 09:22:36;;;;;;;5.40;1.83;;;;;;;25.50;44.91;99019.72;1697711;83;21115;-56
2022/06/23 09:25:29;;;;;;;3.60;1.93;;;;;;;25.41;45.54;99027.68;1703041;83;21554;-56
2022/06/23 09:28:17;;;;;;;3.20;1.90;;;;;;;25.46;46.59;99028.11;1697491;83;21710;-57
2022/06/23 09:31:32;;;;;;;4.07;2.20;;;;;;;25.44;47.03;99032.41;1704299;83;21087;-58
2022/06/23 09:34:10;;;;;;;2.77;1.80;;;;;;;25.41;46.92;99038.35;1705005;83;21017;-56
2022/06/23 09:36:46;;;;;;;3.23;2.00;;;;;;;25.40;47.70;99034.13;1704279;83;21133;-58
2022/06/23 09:39:55;;;;;;;3.47;1.90;;;;;;;25.41;47.17;99038.91;1700112;83;21017;-57
2022/06/23 09:42:48;;;;;;;4.33;1.90;;;;;;;25.37;47.01;99051.30;1694257;83;21485;-56
2022/06/23 09:45:29;;;;;;;3.10;1.67;;;;;;;25.39;47.06;99055.78;1706347;83;21031;-65
2022/06/23 09:48:39;;;;;;;3.02;1.62;;;;;;;25.41;46.64;99064.25;1708099;83;21370;-57
2022/06/23 09:51:41;;;;;;;5.25;2.02;;;;;;;25.34;46.12;99072.70;1703489;83;21157;-56
2022/06/23 09:54:29;;;;;;;3.97;1.83;;;;;;;25.19;47.47;99075.27;1703846;83;21095;-59
2022/06/23 09:57:10;;;;;;;4.73;2.03;;;;;;;25.07;48.63;99069.68;1706514;83;21001;-56
2022/06/23 09:59:49;;;;;;;;;;;;;;;24.98;49.26;99074.98;1700176;83;21065;-63
2022/06/23 10:02:43;;;;;;;5.73;2.07;;;;;;;24.85;49.50;99077.73;1705027;83;20469;-56
2022/06/23 10:05:52;;;;;;;3.67;1.70;;;;;;;24.70;49.82;99082.90;1700520;83;21125;-61
2022/06/23 10:08:52;;;;;;;3.23;1.37;;;;;;;24.60;50.54;99087.17;1709266;83;21017;-57
2022/06/23 10:11:54;;;;;;;3.60;1.40;;;;;;;24.48;50.73;99090.39;1713084;83;21010;-58
2022/06/23 10:14:44;;;;;;;3.53;1.43;;;;;;;24.42;51.33;99095.03;1707940;83;21583;-56
2022/06/23 10:17:42;;;;;;;5.57;2.17;;;;;;;24.30;51.21;99101.97;1704033;83;21013;-56
2022/06/23 10:20:45;;;;;;;5.90;2.07;;;;;;;24.14;51.77;99102.88;1709679;83;21256;-57
2022/06/23 10:23:38;;;;;;;3.47;1.50;;;;;;;23.89;51.91;99108.98;1701207;83;20997;-57
2022/06/23 10:26:41;;;;;;;4.03;1.33;;;;;;;23.45;52.60;99115.71;1702520;83;21126;-57
2022/06/23 10:29:46;;;;;;;6.00;1.63;;;;;;;23.09;55.27;99124.87;1677835;83;20935;-56
2022/06/23 10:32:22;;;;;;;4.63;1.60;;;;;;;22.75;55.92;99123.84;1712173;83;20998;-57
2022/06/23 10:35:06;;;;;;;3.23;2.00;;;;;;;22.33;59.08;99123.67;1706730;83;21761;-58
2022/06/23 10:38:03;;;;;;;5.00;1.30;;;;;;;22.14;63.25;99124.23;1709307;83;21524;-56
2022/06/23 10:41:08;;;;;;;6.07;1.70;;;;;;;21.98;68.12;99123.62;1696664;83;21482;-58
2022/06/23 10:44:15;;;;;;;2.33;1.03;;;;;;;21.77;76.31;99127.59;1707070;83;21053;-57
2022/06/23 10:46:49;;;;;;;4.00;1.37;;;;;;;21.56;83.49;99141.11;1705876;83;21050;-57
2022/06/23 10:49:44;;;;;;;3.67;1.50;;;;;;;21.34;91.57;99139.48;1669182;84;21030;-59
2022/06/23 10:52:50;;;;;;;4.43;1.67;;;;;;;21.17;100.00;99133.79;1668308;85;20987;-58
2022/06/23 10:55:34;;;;;;;11.60;1.73;;;;;;;21.03;100.00;99133.13;1626389;87;21062;-56
2022/06/23 10:58:44;;;;;;;2.90;1.30;;;;;;;20.86;100.00;99132.75;1653851;86;21117;-57
2022/06/23 11:01:31;;;;;;;3.60;1.50;;;;;;;20.73;100.00;99132.07;1671886;85;20940;-57
2022/06/23 11:04:18;;;;;;;5.33;1.40;;;;;;;20.61;100.00;99134.54;1666934;84;21751;-57
2022/06/23 11:07:02;;;;;;;2.83;1.50;;;;;;;20.55;100.00;99132.98;1652888;85;20958;-58
2022/06/23 11:10:14;;;;;;;4.03;1.80;;;;;;;20.44;100.00;99130.13;1656303;84;21161;-56
2022/06/23 11:13:05;;;;;;;5.90;1.50;;;;;;;20.33;100.00;99137.87;1703340;83;21021;-58
2022/06/23 11:16:17;;;;;;;3.15;1.70;;;;;;;20.31;100.00;99146.63;1676729;84;21030;-58
2022/06/23 11:19:15;;;;;;;3.37;1.92;;;;;;;20.30;100.00;99151.64;1704776;82;25213;-56
2022/06/23 11:22:21;;;;;;;3.83;2.23;;;;;;;20.32;100.00;99142.91;1704932;83;21562;-59
2022/06/23 11:25:14;;;;;;;3.40;2.10;;;;;;;20.36;100.00;99142.62;1692308;83;21062;-59
2022/06/23 11:27:49;;;;;;;3.67;1.90;;;;;;;20.41;100.00;99144.69;1704362;83;21062;-59
2022/06/23 11:30:53;;;;;;;3.50;1.50;;;;;;;20.45;100.00;99144.93;1706665;83;20935;-57
2022/06/23 11:33:45;;;;;;;3.30;1.20;;;;;;;20.43;100.00;99158.98;1710229;83;21137;-57
2022/06/23 11:36:42;;;;;;;3.30;1.13;;;;;;;20.37;100.00;99169.34;1705799;83;20991;-57
2022/06/23 11:39:36;;;;;;;5.67;1.13;;;;;;;20.32;100.00;99183.39;1701975;83;21597;-58
2022/06/23 11:42:23;;;;;;;4.30;1.10;;;;;;;20.32;100.00;99184.72;1704679;83;20981;-58
2022/06/23 11:45:17;;;;;;;2.83;1.17;;;;;;;20.36;100.00;99188.94;1643747;83;21126;-61
2022/06/23 11:48:08;;;;;;;2.53;1.00;;;;;;;20.43;100.00;99193.94;1703414;83;21008;-56
2022/06/23 11:50:55;;;;;;;3.10;0.70;;;;;;;20.51;100.00;99196.82;1690228;83;20949;-58
2022/06/23 11:53:53;;;;;;;2.43;0.97;;;;;;;20.60;100.00;99198.34;1706945;83;21060;-64
2022/06/23 11:57:02;;;;;;;4.27;0.90;;;;;;;20.65;100.00;99200.44;1710333;83;21589;-58
2022/06/23 11:59:45;;;;;;;3.43;0.90;;;;;;;20.71;100.00;99189.80;1687209;83;21517;-57
2022/06/23 12:02:12;;;;;;;5.62;0.80;;;;;;;20.77;100.00;99185.53;1694384;83;21061;-58
2022/06/23 12:05:07;;;;;;;3.00;0.90;;;;;;;20.81;100.00;99189.20;1702587;83;20897;-60
2022/06/23 12:07:48;;;;;;;2.53;1.43;;;;;;;20.77;100.00;99192.15;1680383;83;21037;-58
2022/06/23 12:10:20;;;;;;;;;;;;;;;20.75;100.00;99201.42;1703326;83;21106;-57
2022/06/23 12:12:50;;;;;;;3.53;1.20;;;;;;;20.64;100.00;99196.19;1706974;83;20485;-57
2022/06/23 12:15:41;;;;;;;3.60;1.42;;;;;;;20.47;100.00;99198.41;1706708;83;21199;-57
2022/06/23 12:18:14;;;;;;;4.78;1.20;;;;;;;20.32;100.00;99207.22;1704019;83;21064;-65
2022/06/23 12:21:01;;;;;;;2.87;1.50;;;;;;;20.21;100.00;99202.25;1707644;83;21045;-60
2022/06/23 12:23:54;;;;;;;3.03;1.10;;;;;;;20.08;100.00;99203.10;1669195;83;21120;-60
2022/06/23 12:26:30;;;;;;;3.30;1.23;;;;;;;19.91;100.00;99198.66;1697831;83;21108;-58
2022/06/23 12:29:11;;;;;;;3.73;1.70;;;;;;;19.73;100.00;99201.88;1694718;83;21309;-60
2022/06/23 12:32:04;;;;;;;3.70;1.50;;;;;;;19.55;100.00;99196.09;1701981;83;22400;-58
2022/06/23 12:34:56;;;;;;;4.93;2.30;;;;;;;19.38;100.00;99196.38;1698425;83;21002;-59
2022/06/23 12:37:38;;;;;;;4.30;2.13;;;;;;;19.18;100.00;99206.44;1702693;82;21507;-58
2022/06/23 12:40:42;;;;;;;;;;;;;;;18.98;100.00;99206.95;1694933;82;21553;-59
2022/06/23 12:43:36;;;;;;;4.57;1.87;;;;;;;18.83;100.00;99202.48;1698641;83;21222;-58
2022/06/23 12:46:27;;;;;;;4.23;2.10;;;;;;;18.70;100.00;99197.95;1702128;83;20985;-58
2022/06/23 12:49:20;;;;;;;;;;;;;;;18.63;100.00;99192.11;1696470;83;21883;-64
2022/06/23 12:52:10;;;;;;;3.80;1.97;;;;;;;18.70;100.00;99187.40;1692501;83;20230;-57
2022/06/23 12:54:52;;;;;;;3.43;2.03;;;;;;;18.75;100.00;99173.94;1690264;83;20922;-57
2022/06/23 12:57:42;;;;;;;3.12;1.90;;;;;;;18.88;100.00;99183.99;1702014;83;21889;-57
2022/06/23 13:00:17;;;;;;;3.23;1.60;;;;;;;19.13;100.00;99180.54;1698381;83;20992;-57
2022/06/23 13:02:54;;;;;;;4.17;1.80;;;;;;;19.36;100.00;99183.19;1703040;83;21020;-59
2022/06/23 13:05:32;;;;;;;2.90;1.70;;;;;;;19.66;100.00;99183.66;1694550;83;21027;-58